Time,TemperatureF,DewpointF,PressureIn,WindDirection,WindDirectionDegrees,WindSpeedMPH,WindSpeedGustMPH,Humidity,HourlyPrecipIn,Conditions,Clouds,dailyrainin,SoftwareType,DateUTC
2013-02-19 00:01:00,39.6,36.0,29.70,North,0,0.0,2.2,87,0.00,,,0.00,WUHU216HW,2013-02-19 08:01:00,
2013-02-19 00:06:00,40.0,36.4,29.70,North,0,0.0,2.2,87,0.00,,,0.00,WUHU216HW,2013-02-19 08:06:00,
2013-02-19 00:11:00,40.1,36.3,29.70,SSW,203,2.5,2.5,86,0.02,,,0.02,WUHU216HW,2013-02-19 08:11:00,
2013-02-19 00:16:00,39.8,35.9,29.70,SSW,203,1.8,2.5,86,0.02,,,0.02,WUHU216HW,2013-02-19 08:16:00,
2013-02-19 00:21:00,39.2,35.6,29.70,SSW,203,2.5,2.5,87,0.02,,,0.02,WUHU216HW,2013-02-19 08:21:00,
2013-02-19 00:26:00,39.1,35.5,29.70,SSW,203,2.5,2.9,87,0.02,,,0.02,WUHU216HW,2013-02-19 08:26:00,
2013-02-19 00:31:00,38.9,35.3,29.70,SSW,203,2.9,2.9,87,0.02,,,0.02,WUHU216HW,2013-02-19 08:31:00,
2013-02-19 00:36:00,38.5,34.9,29.70,SSW,203,3.1,3.1,87,0.02,,,0.02,WUHU216HW,2013-02-19 08:36:00,
2013-02-19 00:41:00,38.7,35.1,29.70,North,0,0.0,3.1,87,0.02,,,0.02,WUHU216HW,2013-02-19 08:41:00,
2013-02-19 00:46:00,38.7,35.1,29.69,North,0,0.0,3.1,87,0.02,,,0.02,WUHU216HW,2013-02-19 08:46:00,
2013-02-19 00:51:00,39.1,35.5,29.69,North,0,0.0,0.0,87,0.02,,,0.02,WUHU216HW,2013-02-19 08:51:00,
2013-02-19 00:56:00,38.7,35.1,29.69,North,0,0.0,0.0,87,0.02,,,0.02,WUHU216HW,2013-02-19 08:56:00,
2013-02-19 01:01:00,38.2,34.6,29.69,North,0,0.0,0.0,87,0.02,,,0.02,WUHU216HW,2013-02-19 09:01:00,
2013-02-19 01:06:00,38.0,34.8,29.69,North,0,0.0,0.0,88,0.02,,,0.02,WUHU216HW,2013-02-19 09:06:00,
2013-02-19 01:11:00,37.8,34.6,29.69,North,0,0.0,0.0,88,0.00,,,0.02,WUHU216HW,2013-02-19 09:11:00,
2013-02-19 01:16:00,37.6,34.4,29.69,North,0,0.0,0.0,88,0.00,,,0.02,WUHU216HW,2013-02-19 09:16:00,
2013-02-19 01:21:00,37.4,34.5,29.69,North,0,0.0,0.0,89,0.00,,,0.02,WUHU216HW,2013-02-19 09:21:00,
2013-02-19 01:26:00,37.3,34.0,29.69,North,0,0.0,0.0,88,0.00,,,0.02,WUHU216HW,2013-02-19 09:26:00,
2013-02-19 01:31:00,37.1,33.9,29.69,North,0,0.0,0.0,88,0.00,,,0.02,WUHU216HW,2013-02-19 09:31:00,
2013-02-19 01:36:00,37.1,33.9,29.68,North,0,0.0,0.0,88,0.00,,,0.02,WUHU216HW,2013-02-19 09:36:00,
2013-02-19 01:41:00,37.1,33.9,29.68,North,0,0.0,0.0,88,0.00,,,0.02,WUHU216HW,2013-02-19 09:41:00,
2013-02-19 01:46:00,37.3,34.3,29.68,North,0,0.0,0.0,89,0.00,,,0.02,WUHU216HW,2013-02-19 09:46:00,
2013-02-19 01:51:00,37.3,34.3,29.68,North,0,0.0,0.0,89,0.00,,,0.02,WUHU216HW,2013-02-19 09:51:00,
2013-02-19 01:56:00,37.3,34.3,29.68,SSE,158,0.7,1.6,89,0.00,,,0.02,WUHU216HW,2013-02-19 09:56:00,
2013-02-19 02:01:00,37.3,34.3,29.68,SSE,158,0.0,1.6,89,0.00,,,0.02,WUHU216HW,2013-02-19 10:01:00,
2013-02-19 02:06:00,37.1,34.1,29.69,SSE,158,0.0,0.7,89,0.00,,,0.02,WUHU216HW,2013-02-19 10:06:00,
2013-02-19 02:11:00,37.1,34.1,29.69,SSE,158,0.9,1.1,89,0.00,,,0.02,WUHU216HW,2013-02-19 10:11:00,
2013-02-19 02:16:00,36.9,33.7,29.69,SSW,203,1.3,1.8,88,0.00,,,0.02,WUHU216HW,2013-02-19 10:16:00,
2013-02-19 02:21:00,36.7,33.8,29.69,SSW,203,2.0,2.0,89,0.00,,,0.02,WUHU216HW,2013-02-19 10:21:00,
2013-02-19 02:26:00,36.7,33.8,29.69,South,180,1.8,2.5,89,0.00,,,0.02,WUHU216HW,2013-02-19 10:26:00,
2013-02-19 02:31:00,37.1,34.1,29.69,SSW,203,0.4,2.5,89,0.00,,,0.02,WUHU216HW,2013-02-19 10:31:00,
2013-02-19 02:36:00,36.9,33.9,29.69,SSW,203,0.4,1.8,89,0.00,,,0.02,WUHU216HW,2013-02-19 10:36:00,
2013-02-19 02:41:00,37.1,34.1,29.68,North,0,0.0,0.4,89,0.00,,,0.02,WUHU216HW,2013-02-19 10:41:00,
2013-02-19 02:46:00,37.3,34.0,29.69,North,0,0.0,0.4,88,0.00,,,0.02,WUHU216HW,2013-02-19 10:46:00,
2013-02-19 02:51:00,37.4,34.5,29.69,North,0,0.0,0.0,89,0.00,,,0.02,WUHU216HW,2013-02-19 10:51:00,
2013-02-19 02:56:00,37.3,34.0,29.68,North,0,0.0,0.0,88,0.00,,,0.02,WUHU216HW,2013-02-19 10:56:00,
2013-02-19 03:01:00,36.9,33.9,29.68,North,0,0.0,0.0,89,0.00,,,0.02,WUHU216HW,2013-02-19 11:01:00,
2013-02-19 03:06:00,36.7,33.8,29.69,North,0,0.0,0.0,89,0.00,,,0.02,WUHU216HW,2013-02-19 11:06:00,
2013-02-19 03:11:00,36.5,33.6,29.68,North,0,0.0,0.0,89,0.00,,,0.02,WUHU216HW,2013-02-19 11:11:00,
2013-02-19 03:16:00,36.5,33.6,29.68,North,0,0.0,0.0,89,0.00,,,0.02,WUHU216HW,2013-02-19 11:16:00,
2013-02-19 03:21:00,36.5,33.6,29.68,North,0,0.0,0.0,89,0.00,,,0.02,WUHU216HW,2013-02-19 11:21:00,
2013-02-19 03:26:00,36.5,33.8,29.68,North,0,0.0,0.0,90,0.00,,,0.02,WUHU216HW,2013-02-19 11:26:00,
2013-02-19 03:31:00,36.7,34.0,29.68,North,0,0.0,0.0,90,0.00,,,0.02,WUHU216HW,2013-02-19 11:31:00,
2013-02-19 03:36:00,36.7,34.0,29.68,North,0,0.0,0.0,90,0.00,,,0.02,WUHU216HW,2013-02-19 11:36:00,
2013-02-19 03:41:00,36.7,34.0,29.68,North,0,0.0,0.0,90,0.00,,,0.02,WUHU216HW,2013-02-19 11:41:00,
2013-02-19 03:46:00,36.7,34.0,29.68,North,0,0.0,0.0,90,0.00,,,0.02,WUHU216HW,2013-02-19 11:46:00,
2013-02-19 03:51:00,36.7,34.0,29.68,North,0,0.0,0.0,90,0.00,,,0.02,WUHU216HW,2013-02-19 11:51:00,
2013-02-19 03:56:00,37.1,34.4,29.68,North,0,0.0,0.0,90,0.00,,,0.02,WUHU216HW,2013-02-19 11:56:00,
2013-02-19 04:01:00,37.6,34.9,29.68,North,0,0.0,0.0,90,0.00,,,0.02,WUHU216HW,2013-02-19 12:01:00,
2013-02-19 04:06:00,37.8,35.1,29.68,North,0,0.0,0.0,90,0.00,,,0.02,WUHU216HW,2013-02-19 12:06:00,
2013-02-19 04:11:00,37.8,35.1,29.68,North,0,0.0,0.0,90,0.00,,,0.02,WUHU216HW,2013-02-19 12:11:00,
2013-02-19 04:16:00,37.4,34.7,29.68,North,0,0.0,0.0,90,0.00,,,0.02,WUHU216HW,2013-02-19 12:16:00,
2013-02-19 04:21:00,37.3,34.6,29.68,North,0,0.0,0.0,90,0.00,,,0.02,WUHU216HW,2013-02-19 12:21:00,
2013-02-19 04:26:00,37.1,34.4,29.68,North,0,0.0,0.0,90,0.00,,,0.02,WUHU216HW,2013-02-19 12:26:00,
2013-02-19 04:31:00,37.1,34.4,29.69,North,0,0.0,0.0,90,0.00,,,0.02,WUHU216HW,2013-02-19 12:31:00,
2013-02-19 04:36:00,37.1,34.4,29.69,North,0,0.0,0.0,90,0.00,,,0.02,WUHU216HW,2013-02-19 12:36:00,
2013-02-19 04:41:00,37.1,34.4,29.69,North,0,0.0,0.0,90,0.00,,,0.02,WUHU216HW,2013-02-19 12:41:00,
2013-02-19 04:46:00,37.1,34.4,29.69,North,0,0.0,0.0,90,0.00,,,0.02,WUHU216HW,2013-02-19 12:46:00,
2013-02-19 04:51:00,37.1,34.4,29.69,North,0,0.0,0.0,90,0.00,,,0.02,WUHU216HW,2013-02-19 12:51:00,
2013-02-19 04:56:00,37.1,34.7,29.69,North,0,0.0,0.0,91,0.00,,,0.02,WUHU216HW,2013-02-19 12:56:00,
2013-02-19 05:01:00,37.1,34.7,29.69,North,0,0.0,0.0,91,0.00,,,0.02,WUHU216HW,2013-02-19 13:01:00,
2013-02-19 05:06:00,37.1,34.7,29.69,North,0,0.0,0.0,91,0.00,,,0.02,WUHU216HW,2013-02-19 13:06:00,
2013-02-19 05:11:00,37.3,34.8,29.69,SSE,158,1.8,1.8,91,0.00,,,0.02,WUHU216HW,2013-02-19 13:11:00,
2013-02-19 05:16:00,37.3,34.8,29.69,SSE,158,0.4,1.8,91,0.00,,,0.02,WUHU216HW,2013-02-19 13:16:00,
2013-02-19 05:21:00,37.3,34.8,29.69,South,180,0.9,1.8,91,0.00,,,0.02,WUHU216HW,2013-02-19 13:21:00,
2013-02-19 05:26:00,37.3,34.8,29.69,South,180,1.1,1.8,91,0.00,,,0.02,WUHU216HW,2013-02-19 13:26:00,
2013-02-19 05:31:00,37.4,35.0,29.69,SSW,203,0.9,1.8,91,0.00,,,0.02,WUHU216HW,2013-02-19 13:31:00,
2013-02-19 05:36:00,37.6,35.2,29.70,SSW,203,1.8,1.8,91,0.00,,,0.02,WUHU216HW,2013-02-19 13:36:00,
2013-02-19 05:41:00,38.2,35.7,29.69,North,0,0.0,1.8,91,0.00,,,0.02,WUHU216HW,2013-02-19 13:41:00,
2013-02-19 05:46:00,38.5,36.1,29.70,North,0,0.0,1.8,91,0.00,,,0.02,WUHU216HW,2013-02-19 13:46:00,
2013-02-19 05:51:00,38.7,36.0,29.69,SSW,203,2.2,2.2,90,0.00,,,0.02,WUHU216HW,2013-02-19 13:51:00,
2013-02-19 05:56:00,38.5,35.8,29.69,SW,225,2.0,2.2,90,0.00,,,0.02,WUHU216HW,2013-02-19 13:56:00,
2013-02-19 06:01:00,38.3,35.6,29.69,SW,225,2.0,2.2,90,0.00,,,0.02,WUHU216HW,2013-02-19 14:01:00,
2013-02-19 06:06:00,38.5,36.1,29.70,North,0,0.0,2.0,91,0.00,,,0.02,WUHU216HW,2013-02-19 14:06:00,
2013-02-19 06:11:00,39.1,36.6,29.69,North,0,0.0,2.0,91,0.00,,,0.02,WUHU216HW,2013-02-19 14:11:00,
2013-02-19 06:16:00,38.9,36.2,29.69,SW,225,1.1,1.1,90,0.00,,,0.02,WUHU216HW,2013-02-19 14:16:00,
2013-02-19 06:21:00,38.9,36.2,29.70,North,0,0.0,1.1,90,0.00,,,0.02,WUHU216HW,2013-02-19 14:21:00,
2013-02-19 06:26:00,39.2,36.8,29.70,North,0,0.0,1.1,91,0.00,,,0.02,WUHU216HW,2013-02-19 14:26:00,
2013-02-19 06:31:00,39.2,36.5,29.70,South,180,2.2,2.2,90,0.00,,,0.02,WUHU216HW,2013-02-19 14:31:00,
2013-02-19 06:36:00,38.9,36.5,29.70,SSW,203,1.8,2.2,91,0.00,,,0.02,WUHU216HW,2013-02-19 14:36:00,
2013-02-19 06:41:00,38.7,36.0,29.70,SW,225,2.0,2.7,90,0.00,,,0.02,WUHU216HW,2013-02-19 14:41:00,
2013-02-19 06:46:00,38.5,35.8,29.70,North,0,0.7,2.7,90,0.00,,,0.02,WUHU216HW,2013-02-19 14:46:00,
2013-02-19 06:51:00,38.5,35.8,29.70,North,0,0.0,1.8,90,0.00,,,0.02,WUHU216HW,2013-02-19 14:51:00,
2013-02-19 06:56:00,38.5,35.8,29.70,SSW,203,2.9,2.9,90,0.00,,,0.02,WUHU216HW,2013-02-19 14:56:00,
2013-02-19 07:01:00,38.5,36.1,29.70,SSE,158,1.1,2.9,91,0.00,,,0.02,WUHU216HW,2013-02-19 15:01:00,
2013-02-19 07:06:00,38.5,36.1,29.70,SSE,158,0.0,2.9,91,0.00,,,0.02,WUHU216HW,2013-02-19 15:06:00,
2013-02-19 07:11:00,38.5,36.1,29.70,SSW,203,1.3,1.3,91,0.00,,,0.02,WUHU216HW,2013-02-19 15:11:00,
2013-02-19 07:16:00,38.5,36.1,29.70,SSW,203,0.4,1.3,91,0.00,,,0.02,WUHU216HW,2013-02-19 15:16:00,
2013-02-19 07:21:00,38.5,36.1,29.70,WSW,248,0.0,0.4,91,0.00,,,0.02,WUHU216HW,2013-02-19 15:21:00,
2013-02-19 07:26:00,38.5,36.1,29.70,SSW,203,1.8,1.8,91,0.00,,,0.02,WUHU216HW,2013-02-19 15:26:00,
2013-02-19 07:31:00,38.5,36.1,29.70,South,180,0.4,1.8,91,0.00,,,0.02,WUHU216HW,2013-02-19 15:31:00,
2013-02-19 07:36:00,38.5,36.1,29.71,South,180,0.0,1.8,91,0.00,,,0.02,WUHU216HW,2013-02-19 15:36:00,
2013-02-19 07:41:00,38.7,36.3,29.71,North,0,0.0,0.4,91,0.00,,,0.02,WUHU216HW,2013-02-19 15:41:00,
2013-02-19 07:46:00,39.2,37.1,29.71,North,0,0.0,0.0,92,0.00,,,0.02,WUHU216HW,2013-02-19 15:46:00,
2013-02-19 07:51:00,39.6,37.2,29.71,ENE,68,0.0,0.0,91,0.00,,,0.02,WUHU216HW,2013-02-19 15:51:00,
2013-02-19 07:56:00,39.4,37.0,29.72,ENE,68,0.9,0.9,91,0.00,,,0.02,WUHU216HW,2013-02-19 15:56:00,
2013-02-19 08:01:00,39.2,36.8,29.72,ENE,68,0.9,0.9,91,0.00,,,0.02,WUHU216HW,2013-02-19 16:01:00,
2013-02-19 08:06:00,39.2,36.8,29.72,South,180,0.4,0.9,91,0.00,,,0.02,WUHU216HW,2013-02-19 16:06:00,
2013-02-19 08:11:00,39.2,37.1,29.72,SSW,203,1.8,1.8,92,0.00,,,0.02,WUHU216HW,2013-02-19 16:11:00,
2013-02-19 08:16:00,39.2,37.1,29.72,SSW,203,0.7,1.8,92,0.00,,,0.02,WUHU216HW,2013-02-19 16:16:00,
2013-02-19 08:21:00,39.4,37.3,29.72,SSW,203,0.0,1.6,92,0.00,,,0.02,WUHU216HW,2013-02-19 16:21:00,
2013-02-19 08:26:00,39.4,37.3,29.73,SSW,203,0.0,0.7,92,0.00,,,0.02,WUHU216HW,2013-02-19 16:26:00,
2013-02-19 08:31:00,39.6,37.4,29.73,SSW,203,0.2,0.2,92,0.00,,,0.02,WUHU216HW,2013-02-19 16:31:00,
2013-02-19 08:36:00,40.0,38.1,29.73,South,180,0.4,0.7,93,0.00,,,0.02,WUHU216HW,2013-02-19 16:36:00,
2013-02-19 08:41:00,40.1,38.3,29.74,South,180,0.0,0.7,93,0.00,,,0.02,WUHU216HW,2013-02-19 16:41:00,
2013-02-19 08:46:00,40.3,38.4,29.74,NNW,338,0.4,0.9,93,0.00,,,0.02,WUHU216HW,2013-02-19 16:46:00,
2013-02-19 08:51:00,40.5,38.6,29.74,North,0,0.0,0.9,93,0.00,,,0.02,WUHU216HW,2013-02-19 16:51:00,
2013-02-19 08:56:00,40.7,38.5,29.74,North,0,0.7,0.7,92,0.00,,,0.02,WUHU216HW,2013-02-19 16:56:00,
2013-02-19 09:01:00,40.9,39.0,29.74,NNE,23,0.9,1.6,93,0.00,,,0.02,WUHU216HW,2013-02-19 17:01:00,
2013-02-19 09:06:00,41.0,38.9,29.75,NNE,23,0.9,1.6,92,0.00,,,0.02,WUHU216HW,2013-02-19 17:06:00,
2013-02-19 09:11:00,41.4,39.2,29.75,NNE,23,0.4,0.9,92,0.00,,,0.02,WUHU216HW,2013-02-19 17:11:00,
2013-02-19 09:16:00,41.6,39.2,29.75,SW,225,0.7,1.1,91,0.00,,,0.02,WUHU216HW,2013-02-19 17:16:00,
2013-02-19 09:21:00,41.8,39.3,29.75,WNW,293,2.5,2.5,91,0.00,,,0.02,WUHU216HW,2013-02-19 17:21:00,
2013-02-19 09:26:00,41.9,39.2,29.75,SW,225,0.9,2.5,90,0.00,,,0.02,WUHU216HW,2013-02-19 17:26:00,
2013-02-19 09:31:00,42.3,39.6,29.75,East,90,0.2,2.5,90,0.00,,,0.02,WUHU216HW,2013-02-19 17:31:00,
2013-02-19 09:36:00,42.3,39.6,29.75,NW,315,0.4,1.1,90,0.00,,,0.02,WUHU216HW,2013-02-19 17:36:00,
2013-02-19 09:41:00,42.8,39.9,29.75,SW,225,1.6,1.6,89,0.00,,,0.02,WUHU216HW,2013-02-19 17:41:00,
2013-02-19 09:46:00,42.8,39.9,29.75,NNE,23,0.2,1.6,89,0.00,,,0.02,WUHU216HW,2013-02-19 17:46:00,
2013-02-19 09:51:00,43.0,39.4,29.75,WNW,293,3.1,3.4,87,0.00,,,0.02,WUHU216HW,2013-02-19 17:51:00,
2013-02-19 09:56:00,43.4,40.1,29.75,West,270,0.7,3.4,88,0.00,,,0.02,WUHU216HW,2013-02-19 17:56:00,
2013-02-19 10:01:00,43.6,40.2,29.75,NNE,23,1.1,3.6,88,0.00,,,0.02,WUHU216HW,2013-02-19 18:01:00,
2013-02-19 10:06:00,43.7,40.4,29.75,North,0,2.7,3.6,88,0.00,,,0.02,WUHU216HW,2013-02-19 18:06:00,
2013-02-19 10:11:00,44.1,40.8,29.75,NNE,23,2.7,2.7,88,0.00,,,0.02,WUHU216HW,2013-02-19 18:11:00,
2013-02-19 10:16:00,44.3,41.0,29.75,North,0,3.6,3.6,88,0.00,,,0.02,WUHU216HW,2013-02-19 18:16:00,
2013-02-19 10:21:00,44.6,40.7,29.75,North,0,4.0,4.0,86,0.00,,,0.02,WUHU216HW,2013-02-19 18:21:00,
2013-02-19 10:26:00,45.0,40.8,29.75,North,0,4.5,4.5,85,0.00,,,0.02,WUHU216HW,2013-02-19 18:26:00,
2013-02-19 10:31:00,45.5,41.3,29.75,NNE,23,4.3,4.5,85,0.00,,,0.02,WUHU216HW,2013-02-19 18:31:00,
2013-02-19 10:36:00,45.7,41.2,29.75,NNE,23,2.5,4.5,84,0.00,,,0.02,WUHU216HW,2013-02-19 18:36:00,
2013-02-19 10:41:00,46.1,41.6,29.76,North,0,2.5,4.3,84,0.00,,,0.02,WUHU216HW,2013-02-19 18:41:00,
2013-02-19 10:46:00,46.6,41.5,29.76,North,0,4.7,4.7,82,0.00,,,0.02,WUHU216HW,2013-02-19 18:46:00,
2013-02-19 10:51:00,46.8,41.3,29.76,North,0,4.3,4.7,81,0.00,,,0.02,WUHU216HW,2013-02-19 18:51:00,
2013-02-19 10:56:00,47.0,41.1,29.76,North,0,3.1,4.7,80,0.00,,,0.02,WUHU216HW,2013-02-19 18:56:00,
2013-02-19 11:01:00,47.2,41.3,29.76,North,0,5.8,5.8,80,0.00,,,0.02,WUHU216HW,2013-02-19 19:01:00,
2013-02-19 11:06:00,47.2,41.3,29.76,NNE,23,5.6,5.8,80,0.00,,,0.02,WUHU216HW,2013-02-19 19:06:00,
2013-02-19 11:11:00,47.3,41.5,29.76,NNE,23,4.9,5.8,80,0.00,,,0.02,WUHU216HW,2013-02-19 19:11:00,
2013-02-19 11:16:00,47.3,40.8,29.76,North,0,5.6,5.6,78,0.00,,,0.02,WUHU216HW,2013-02-19 19:16:00,
2013-02-19 11:21:00,47.9,41.3,29.76,North,0,6.3,6.3,78,0.00,,,0.02,WUHU216HW,2013-02-19 19:21:00,
2013-02-19 11:26:00,48.1,41.5,29.76,North,0,6.3,6.3,78,0.00,,,0.02,WUHU216HW,2013-02-19 19:26:00,
2013-02-19 11:31:00,48.2,41.3,29.76,North,0,5.6,6.3,77,0.00,,,0.02,WUHU216HW,2013-02-19 19:31:00,
2013-02-19 11:36:00,48.4,41.5,29.76,North,0,6.3,6.3,77,0.00,,,0.02,WUHU216HW,2013-02-19 19:36:00,
2013-02-19 11:41:00,48.6,41.7,29.77,North,0,6.9,6.9,77,0.00,,,0.02,WUHU216HW,2013-02-19 19:41:00,
2013-02-19 11:46:00,48.8,41.9,29.77,NNE,23,5.6,6.9,77,0.00,,,0.02,WUHU216HW,2013-02-19 19:46:00,
2013-02-19 11:51:00,49.1,42.5,29.77,North,0,5.8,6.9,78,0.00,,,0.02,WUHU216HW,2013-02-19 19:51:00,
2013-02-19 11:56:00,49.5,42.8,29.77,NNE,23,5.8,5.8,78,0.00,,,0.02,WUHU216HW,2013-02-19 19:56:00,
2013-02-19 12:01:00,50.0,43.1,29.77,NNE,23,5.8,6.3,77,0.00,,,0.02,WUHU216HW,2013-02-19 20:01:00,
2013-02-19 12:06:00,50.2,42.9,29.77,NNE,23,4.9,6.3,76,0.00,,,0.02,WUHU216HW,2013-02-19 20:06:00,
2013-02-19 12:11:00,50.4,43.1,29.77,North,0,6.3,6.3,76,0.00,,,0.02,WUHU216HW,2013-02-19 20:11:00,
2013-02-19 12:16:00,50.8,43.5,29.77,NNE,23,5.6,6.3,76,0.00,,,0.02,WUHU216HW,2013-02-19 20:16:00,
2013-02-19 12:21:00,50.9,43.3,29.77,NNE,23,4.7,6.3,75,0.00,,,0.02,WUHU216HW,2013-02-19 20:21:00,
2013-02-19 12:26:00,50.9,43.3,29.78,North,0,5.8,5.8,75,0.00,,,0.02,WUHU216HW,2013-02-19 20:26:00,
2013-02-19 12:31:00,50.8,43.1,29.78,North,0,4.7,6.3,75,0.00,,,0.02,WUHU216HW,2013-02-19 20:31:00,
2013-02-19 12:36:00,50.9,43.3,29.78,North,0,6.3,6.3,75,0.00,,,0.02,WUHU216HW,2013-02-19 20:36:00,
2013-02-19 12:41:00,50.9,42.9,29.78,NNE,23,5.4,6.3,74,0.00,,,0.02,WUHU216HW,2013-02-19 20:41:00,
2013-02-19 12:46:00,51.3,43.7,29.78,North,0,5.8,6.3,75,0.00,,,0.02,WUHU216HW,2013-02-19 20:46:00,
2013-02-19 12:51:00,51.5,42.9,29.78,North,0,3.4,5.8,72,0.00,,,0.02,WUHU216HW,2013-02-19 20:51:00,
2013-02-19 12:56:00,51.1,42.5,29.78,North,0,4.7,5.4,72,0.00,,,0.02,WUHU216HW,2013-02-19 20:56:00,
2013-02-19 13:01:00,50.9,42.9,29.78,North,0,4.7,4.7,74,0.00,,,0.02,WUHU216HW,2013-02-19 21:01:00,
2013-02-19 13:06:00,51.5,42.9,29.78,North,0,0.0,4.7,72,0.00,,,0.02,WUHU216HW,2013-02-19 21:06:00,
2013-02-19 13:11:00,51.5,42.5,29.78,North,0,5.4,5.4,71,0.00,,,0.02,WUHU216HW,2013-02-19 21:11:00,
2013-02-19 13:16:00,51.3,42.7,29.78,North,0,6.3,6.3,72,0.00,,,0.02,WUHU216HW,2013-02-19 21:16:00,
2013-02-19 13:21:00,51.3,42.7,29.78,NNE,23,6.9,8.7,72,0.00,,,0.02,WUHU216HW,2013-02-19 21:21:00,
2013-02-19 13:26:00,51.1,42.5,29.78,North,0,6.9,8.7,72,0.00,,,0.02,WUHU216HW,2013-02-19 21:26:00,
2013-02-19 13:31:00,50.9,42.6,29.78,North,0,6.7,6.9,73,0.00,,,0.02,WUHU216HW,2013-02-19 21:31:00,
2013-02-19 13:36:00,51.8,43.5,29.78,North,0,0.0,6.9,73,0.00,,,0.02,WUHU216HW,2013-02-19 21:36:00,
2013-02-19 13:41:00,52.0,43.3,29.78,North,0,0.0,0.0,72,0.00,,,0.02,WUHU216HW,2013-02-19 21:41:00,
2013-02-19 13:46:00,52.2,43.1,29.78,North,0,0.0,0.0,71,0.00,,,0.02,WUHU216HW,2013-02-19 21:46:00,
2013-02-19 13:51:00,51.3,41.9,29.78,North,0,0.0,0.0,70,0.00,,,0.02,WUHU216HW,2013-02-19 21:51:00,
2013-02-19 13:56:00,50.9,41.6,29.78,North,0,0.0,0.0,70,0.00,,,0.02,WUHU216HW,2013-02-19 21:56:00,
2013-02-19 14:01:00,50.8,41.8,29.79,North,0,0.0,0.0,71,0.00,,,0.02,WUHU216HW,2013-02-19 22:01:00,
2013-02-19 14:06:00,51.3,42.7,29.79,North,0,0.0,0.0,72,0.00,,,0.02,WUHU216HW,2013-02-19 22:06:00,
2013-02-19 14:11:00,51.7,42.3,29.79,North,0,0.0,0.0,70,0.00,,,0.02,WUHU216HW,2013-02-19 22:11:00,
2013-02-19 14:16:00,52.2,43.5,29.79,North,0,0.0,0.0,72,0.00,,,0.02,WUHU216HW,2013-02-19 22:16:00,
2013-02-19 14:21:00,52.7,44.0,29.79,North,0,0.0,0.0,72,0.00,,,0.02,WUHU216HW,2013-02-19 22:21:00,
2013-02-19 14:26:00,53.3,44.5,29.79,North,0,0.0,0.0,72,0.00,,,0.02,WUHU216HW,2013-02-19 22:26:00,
2013-02-19 14:31:00,53.6,45.2,29.79,North,0,0.0,0.0,73,0.00,,,0.02,WUHU216HW,2013-02-19 22:31:00,
2013-02-19 14:36:00,53.8,45.0,29.79,North,0,0.0,0.0,72,0.00,,,0.02,WUHU216HW,2013-02-19 22:36:00,
2013-02-19 14:41:00,53.5,45.0,29.79,North,0,0.0,0.0,73,0.00,,,0.02,WUHU216HW,2013-02-19 22:41:00,
2013-02-19 14:46:00,53.6,45.2,29.80,North,0,0.0,0.0,73,0.00,,,0.02,WUHU216HW,2013-02-19 22:46:00,
2013-02-19 14:51:00,54.0,45.2,29.80,North,0,0.0,0.0,72,0.00,,,0.02,WUHU216HW,2013-02-19 22:51:00,
2013-02-19 14:56:00,54.4,45.2,29.80,North,0,0.0,0.0,71,0.00,,,0.02,WUHU216HW,2013-02-19 22:56:00,
2013-02-19 15:01:00,53.8,43.9,29.80,North,0,0.0,0.0,69,0.00,,,0.02,WUHU216HW,2013-02-19 23:01:00,
2013-02-19 15:06:00,52.9,42.2,29.80,North,0,0.0,0.0,67,0.00,,,0.02,WUHU216HW,2013-02-19 23:06:00,
2013-02-19 15:11:00,52.0,41.4,29.80,North,0,0.0,0.0,67,0.00,,,0.02,WUHU216HW,2013-02-19 23:11:00,
2013-02-19 15:16:00,51.1,41.3,29.80,North,0,0.0,0.0,69,0.00,,,0.02,WUHU216HW,2013-02-19 23:16:00,
2013-02-19 15:21:00,50.8,40.6,29.80,North,0,0.0,0.0,68,0.00,,,0.02,WUHU216HW,2013-02-19 23:21:00,
2013-02-19 15:26:00,50.6,40.9,29.81,North,0,0.0,0.0,69,0.00,,,0.02,WUHU216HW,2013-02-19 23:26:00,
2013-02-19 15:31:00,50.6,41.2,29.80,North,0,0.0,0.0,70,0.00,,,0.02,WUHU216HW,2013-02-19 23:31:00,
2013-02-19 15:36:00,50.2,41.2,29.81,North,0,0.0,0.0,71,0.00,,,0.02,WUHU216HW,2013-02-19 23:36:00,
2013-02-19 15:41:00,50.2,41.6,29.81,North,0,0.0,0.0,72,0.00,,,0.02,WUHU216HW,2013-02-19 23:41:00,
2013-02-19 15:46:00,50.2,41.6,29.81,North,0,0.0,0.0,72,0.00,,,0.02,WUHU216HW,2013-02-19 23:46:00,
2013-02-19 15:51:00,50.2,41.6,29.81,North,0,0.0,0.0,72,0.00,,,0.02,WUHU216HW,2013-02-19 23:51:00,
2013-02-19 15:56:00,50.0,38.7,29.81,North,0,0.0,0.0,65,0.00,,,0.02,WUHU216HW,2013-02-19 23:56:00,
2013-02-19 16:01:00,50.0,38.4,29.81,North,0,0.0,0.0,64,0.00,,,0.02,WUHU216HW,2013-02-20 00:01:00,
2013-02-19 16:06:00,50.2,39.2,29.81,NW,315,2.5,2.5,66,0.00,,,0.02,WUHU216HW,2013-02-20 00:06:00,
2013-02-19 16:11:00,50.2,38.4,29.81,North,0,1.8,2.5,64,0.00,,,0.02,WUHU216HW,2013-02-20 00:11:00,
2013-02-19 16:16:00,50.0,37.9,29.81,NNW,338,3.1,3.1,63,0.00,,,0.02,WUHU216HW,2013-02-20 00:16:00,
2013-02-19 16:21:00,49.9,37.4,29.82,West,270,0.4,3.1,62,0.00,,,0.02,WUHU216HW,2013-02-20 00:21:00,
2013-02-19 16:26:00,49.5,36.6,29.81,NW,315,2.5,2.5,61,0.00,,,0.02,WUHU216HW,2013-02-20 00:26:00,
2013-02-19 16:31:00,49.3,36.8,29.82,North,0,0.2,2.5,62,0.00,,,0.02,WUHU216HW,2013-02-20 00:31:00,
2013-02-19 16:36:00,49.0,36.9,29.82,NW,315,0.4,2.7,63,0.00,,,0.02,WUHU216HW,2013-02-20 00:36:00,
2013-02-19 16:41:00,48.6,36.2,29.82,WNW,293,2.0,2.7,62,0.00,,,0.02,WUHU216HW,2013-02-20 00:41:00,
2013-02-19 16:46:00,48.2,36.6,29.82,NW,315,3.4,4.5,64,0.00,,,0.02,WUHU216HW,2013-02-20 00:46:00,
2013-02-19 16:48:00,48.2,36.6,29.82,NW,315,3.4,4.5,64,0.00,,,0.02,WUHU216HW,2013-02-20 00:48:00,
2013-02-19 17:59:00,43.7,35.3,29.84,SSW,203,3.4,3.4,72,0.00,,,0.02,WUHU216HW,2013-02-20 01:59:00,
2013-02-19 18:04:00,43.4,35.0,29.84,South,180,3.1,3.6,72,0.00,,,0.02,WUHU216HW,2013-02-20 02:04:00,
2013-02-19 18:09:00,43.0,35.0,29.84,SSW,203,3.1,3.6,73,0.00,,,0.02,WUHU216HW,2013-02-20 02:09:00,
2013-02-19 18:14:00,43.0,35.0,29.84,SSW,203,3.1,3.1,73,0.00,,,0.02,WUHU216HW,2013-02-20 02:14:00,
2013-02-19 18:19:00,42.1,34.7,29.84,South,180,2.9,2.9,75,0.00,,,0.02,WUHU216HW,2013-02-20 02:19:00,
2013-02-19 18:24:00,41.8,34.4,29.85,South,180,3.4,3.4,75,0.00,,,0.02,WUHU216HW,2013-02-20 02:24:00,
2013-02-19 18:29:00,41.8,34.4,29.85,South,180,3.4,3.4,75,0.00,,,0.02,WUHU216HW,2013-02-20 02:29:00,